Time;durP1;ratioP1;P1;durP2;ratioP2;P2;SDS_P1;SDS_P2;PMS_P1;PMS_P2;Temp;Humidity;BMP_temperature;BMP_pressure;BME280_temperature;BME280_humidity;BME280_pressure;Samples;Min_cycle;Max_cycle;Signal;HPM_P1;HPM_P2
2021/10/20 00:01:31;;;;;;;7.47;4.40;;;13.60;99.90;;;;;;5018526;28;20464;-79
2021/10/20 00:03:58;;;;;;;5.70;4.13;;;13.50;99.90;;;;;;5018055;28;20918;-79
2021/10/20 00:06:24;;;;;;;6.20;3.83;;;13.40;99.90;;;;;;5018055;28;20919;-79
2021/10/20 00:08:51;;;;;;;6.17;4.13;;;13.30;99.90;;;;;;5017554;28;20500;-78
2021/10/20 00:11:18;;;;;;;6.37;4.67;;;13.30;99.90;;;;;;5018043;28;20477;-79
2021/10/20 00:13:46;;;;;;;6.67;4.00;;;13.20;99.90;;;;;;5024134;28;20454;-78
2021/10/20 00:16:13;;;;;;;7.50;4.10;;;13.10;99.90;;;;;;5018183;28;20453;-77
2021/10/20 00:18:46;;;;;;;5.93;3.87;;;13.10;99.90;;;;;;5017729;28;20457;-79
2021/10/20 00:21:13;;;;;;;5.80;3.37;;;13.10;99.90;;;;;;5017714;28;20559;-79
2021/10/20 00:23:40;;;;;;;6.43;3.97;;;13.10;99.90;;;;;;5016949;28;20518;-79
2021/10/20 00:26:07;;;;;;;5.17;3.73;;;13.10;99.90;;;;;;5016994;28;20428;-77
2021/10/20 00:28:34;;;;;;;6.00;3.70;;;13.10;99.90;;;;;;5018412;28;20420;-77
2021/10/20 00:31:00;;;;;;;8.53;4.50;;;13.10;99.90;;;;;;5019442;28;20585;-78
2021/10/20 00:33:27;;;;;;;6.17;4.40;;;13.10;99.90;;;;;;5017707;28;20405;-78
2021/10/20 00:35:55;;;;;;;6.93;3.87;;;13.10;99.90;;;;;;5021406;28;20485;-78
2021/10/20 00:38:22;;;;;;;5.50;3.97;;;13.10;99.90;;;;;;5021830;28;20456;-78
2021/10/20 00:40:51;;;;;;;5.50;3.80;;;13.10;99.90;;;;;;5020896;28;20534;-77
2021/10/20 00:43:19;;;;;;;5.40;3.90;;;13.00;99.90;;;;;;5020417;28;20449;-78
2021/10/20 00:45:45;;;;;;;5.97;3.60;;;13.00;99.90;;;;;;5018515;28;20462;-77
2021/10/20 00:48:12;;;;;;;6.30;4.30;;;12.90;99.90;;;;;;5018642;28;20461;-78
2021/10/20 00:50:39;;;;;;;6.30;3.57;;;12.90;99.90;;;;;;5017078;28;20800;-78
2021/10/20 00:53:08;;;;;;;6.87;4.07;;;12.90;99.90;;;;;;5017822;28;20943;-79
2021/10/20 00:55:35;;;;;;;7.43;4.20;;;13.00;99.90;;;;;;5017311;28;20449;-77
2021/10/20 00:58:03;;;;;;;5.70;3.90;;;13.00;99.90;;;;;;5015777;28;20435;-77
2021/10/20 01:00:30;;;;;;;7.00;3.80;;;13.00;99.90;;;;;;5015909;28;21019;-78
2021/10/20 01:02:57;;;;;;;6.37;3.80;;;12.90;99.90;;;;;;5016545;28;20455;-78
2021/10/20 01:05:26;;;;;;;6.00;3.70;;;13.00;99.90;;;;;;5016619;28;20537;-77
2021/10/20 01:07:52;;;;;;;10.90;4.03;;;13.00;99.90;;;;;;5016317;28;20437;-78
2021/10/20 01:10:21;;;;;;;7.60;4.30;;;12.90;99.90;;;;;;5016044;28;20446;-77
2021/10/20 01:12:48;;;;;;;6.60;3.83;;;12.90;99.90;;;;;;5016223;28;20478;-78
2021/10/20 01:15:17;;;;;;;5.97;3.47;;;12.90;99.90;;;;;;5017290;28;20431;-78
2021/10/20 01:17:46;;;;;;;6.00;3.77;;;12.90;99.90;;;;;;5016458;28;20798;-80
2021/10/20 01:20:13;;;;;;;7.03;4.00;;;12.90;99.90;;;;;;5016490;28;20482;-78
2021/10/20 01:22:41;;;;;;;6.33;3.63;;;12.90;99.90;;;;;;5016269;28;20850;-78
2021/10/20 01:25:09;;;;;;;7.00;3.93;;;12.80;99.90;;;;;;5016882;28;20416;-78
2021/10/20 01:27:37;;;;;;;5.70;3.30;;;12.80;99.90;;;;;;5015934;28;20471;-78
2021/10/20 01:30:05;;;;;;;6.27;3.57;;;12.70;99.90;;;;;;5016185;28;20446;-78
2021/10/20 01:32:33;;;;;;;6.83;3.80;;;12.70;99.90;;;;;;5016267;28;20957;-78
2021/10/20 01:34:59;;;;;;;6.13;3.50;;;12.70;99.90;;;;;;5016575;28;20542;-78
2021/10/20 01:37:29;;;;;;;5.37;3.77;;;12.70;99.90;;;;;;5015692;28;20431;-78
2021/10/20 01:39:57;;;;;;;9.20;3.67;;;12.70;99.90;;;;;;5019493;28;20486;-77
2021/10/20 01:42:25;;;;;;;5.50;3.57;;;12.60;99.90;;;;;;5019930;28;20444;-78
2021/10/20 01:44:52;;;;;;;6.50;3.60;;;12.60;99.90;;;;;;5015727;28;20458;-78
2021/10/20 01:47:19;;;;;;;5.20;3.37;;;12.70;99.90;;;;;;5015848;28;20836;-78
2021/10/20 01:49:46;;;;;;;5.30;3.10;;;12.80;99.90;;;;;;5015678;28;20541;-78
2021/10/20 01:52:12;;;;;;;5.87;3.40;;;12.80;99.90;;;;;;5015820;28;20449;-78
2021/10/20 01:54:39;;;;;;;5.57;3.50;;;12.70;99.90;;;;;;5016522;28;20431;-78
2021/10/20 01:57:07;;;;;;;6.17;3.70;;;12.70;99.90;;;;;;5016505;28;20463;-78
2021/10/20 01:59:34;;;;;;;5.90;3.70;;;12.70;99.90;;;;;;5016395;28;20446;-78
2021/10/20 02:02:01;;;;;;;6.93;3.83;;;12.70;99.90;;;;;;5017126;28;20868;-78
2021/10/20 02:04:28;;;;;;;5.30;3.47;;;12.80;99.90;;;;;;5016019;28;20428;-78
2021/10/20 02:06:55;;;;;;;5.40;2.90;;;12.70;99.90;;;;;;5016143;28;20523;-78
2021/10/20 02:09:22;;;;;;;5.07;3.20;;;12.80;99.90;;;;;;5016401;28;20465;-78
2021/10/20 02:11:48;;;;;;;6.13;3.57;;;12.80;99.90;;;;;;5029950;28;20547;-78
2021/10/20 02:14:17;;;;;;;4.90;3.20;;;12.80;99.90;;;;;;5028099;28;20492;-78
2021/10/20 02:16:44;;;;;;;5.50;3.20;;;12.90;99.90;;;;;;5015969;28;20553;-78
2021/10/20 02:19:10;;;;;;;5.87;3.50;;;12.90;99.90;;;;;;5015268;28;20424;-78
2021/10/20 02:21:37;;;;;;;4.83;3.27;;;12.90;99.90;;;;;;5015887;28;20468;-78
2021/10/20 02:24:05;;;;;;;5.03;3.07;;;13.00;99.90;;;;;;5016420;28;20820;-78
2021/10/20 02:26:32;;;;;;;4.90;2.87;;;13.00;99.90;;;;;;5017411;28;20450;-78
2021/10/20 02:28:59;;;;;;;4.83;3.27;;;13.00;99.90;;;;;;5017413;28;20487;-78
2021/10/20 02:31:27;;;;;;;6.80;3.20;;;13.00;99.90;;;;;;5015818;28;20453;-78
2021/10/20 02:33:54;;;;;;;6.63;3.40;;;13.00;99.90;;;;;;5015869;28;20437;-78
2021/10/20 02:36:21;;;;;;;7.40;3.20;;;13.10;99.90;;;;;;5023998;28;20473;-77
2021/10/20 02:38:48;;;;;;;6.93;3.77;;;13.00;99.90;;;;;;5029635;28;20815;-77
2021/10/20 02:41:15;;;;;;;4.57;2.73;;;13.00;99.90;;;;;;5024054;28;20507;-78
2021/10/20 02:43:42;;;;;;;4.50;3.27;;;12.90;99.90;;;;;;5022068;28;20452;-77
2021/10/20 02:46:09;;;;;;;4.93;3.00;;;12.90;99.90;;;;;;5029651;28;20491;-77
2021/10/20 02:48:37;;;;;;;4.80;3.03;;;12.90;99.90;;;;;;5018712;28;20452;-78
2021/10/20 02:51:04;;;;;;;4.97;3.23;;;12.90;99.90;;;;;;5016170;28;20478;-78
2021/10/20 02:53:31;;;;;;;4.77;3.17;;;12.90;99.90;;;;;;5017347;28;20943;-78
2021/10/20 02:55:57;;;;;;;7.07;3.30;;;12.90;99.90;;;;;;5028105;28;20424;-78
2021/10/20 02:58:24;;;;;;;4.87;3.07;;;12.80;99.90;;;;;;5018713;28;20458;-78
2021/10/20 03:00:51;;;;;;;5.10;3.30;;;12.90;99.90;;;;;;5018772;28;20493;-78
2021/10/20 03:03:18;;;;;;;5.67;3.47;;;12.90;99.90;;;;;;5017284;28;20432;-78
2021/10/20 03:05:46;;;;;;;7.03;3.07;;;12.90;99.90;;;;;;5016071;28;20461;-77
2021/10/20 03:08:13;;;;;;;5.63;3.50;;;12.90;99.90;;;;;;5015862;28;20457;-78
2021/10/20 03:10:40;;;;;;;7.20;2.83;;;12.80;99.90;;;;;;5015621;28;20516;-78
2021/10/20 03:13:07;;;;;;;5.83;3.20;;;12.80;99.90;;;;;;5015625;28;20450;-78
2021/10/20 03:15:33;;;;;;;4.70;2.77;;;12.80;99.90;;;;;;5015977;28;20792;-79
2021/10/20 03:18:00;;;;;;;6.07;3.00;;;12.70;99.90;;;;;;5016233;28;20497;-78
2021/10/20 03:20:27;;;;;;;4.67;2.90;;;12.70;99.90;;;;;;5015792;28;20536;-78
2021/10/20 03:22:55;;;;;;;5.97;3.00;;;12.70;99.90;;;;;;5016642;28;20943;-79
2021/10/20 03:25:22;;;;;;;7.40;3.23;;;12.70;99.90;;;;;;5015672;28;20918;-78
2021/10/20 03:27:50;;;;;;;6.17;3.40;;;12.70;99.90;;;;;;5027712;28;20484;-78
2021/10/20 03:30:19;;;;;;;5.77;2.63;;;12.70;99.90;;;;;;5018790;28;20452;-79
2021/10/20 03:32:47;;;;;;;6.10;3.10;;;12.70;99.90;;;;;;5058034;23;21043;-78
2021/10/20 03:35:14;;;;;;;5.73;3.60;;;12.60;99.90;;;;;;5017256;28;20490;-78
2021/10/20 03:37:41;;;;;;;6.97;3.30;;;12.70;99.90;;;;;;5019233;28;20557;-78
2021/10/20 03:40:10;;;;;;;5.87;3.03;;;12.70;99.90;;;;;;5025751;28;20433;-77
2021/10/20 03:42:38;;;;;;;5.87;3.00;;;12.60;99.90;;;;;;5024722;28;20522;-78
2021/10/20 03:45:06;;;;;;;8.47;3.33;;;12.70;99.90;;;;;;5022010;28;20437;-78
2021/10/20 03:47:33;;;;;;;5.43;2.87;;;12.70;99.90;;;;;;5023279;28;20965;-78
2021/10/20 03:50:00;;;;;;;5.03;3.30;;;12.70;99.90;;;;;;5018928;28;20542;-78
2021/10/20 03:52:27;;;;;;;5.60;3.53;;;12.80;99.90;;;;;;5017732;28;20961;-76
2021/10/20 03:54:54;;;;;;;4.77;2.90;;;12.90;99.90;;;;;;5018475;28;20459;-77
2021/10/20 03:57:22;;;;;;;5.93;3.37;;;13.00;99.90;;;;;;5024929;28;20440;-76
2021/10/20 03:59:49;;;;;;;4.97;3.43;;;13.00;99.90;;;;;;5018179;28;20792;-78
2021/10/20 04:02:16;;;;;;;6.53;2.80;;;13.00;99.90;;;;;;5016832;28;20494;-77
2021/10/20 04:04:43;;;;;;;4.70;2.60;;;13.00;99.90;;;;;;5017172;28;20425;-77
2021/10/20 04:07:09;;;;;;;5.03;2.83;;;13.00;99.90;;;;;;5017098;28;20790;-76
2021/10/20 04:09:36;;;;;;;6.30;3.60;;;12.90;99.90;;;;;;5015627;28;20428;-77
2021/10/20 04:12:03;;;;;;;5.53;3.17;;;12.80;99.90;;;;;;5015670;28;20449;-77
2021/10/20 04:14:31;;;;;;;5.23;3.30;;;12.80;99.90;;;;;;5015880;28;20540;-77
2021/10/20 04:16:58;;;;;;;5.00;2.90;;;12.70;99.90;;;;;;5015576;28;20426;-77
2021/10/20 04:19:25;;;;;;;5.10;2.97;;;12.80;99.90;;;;;;5016570;28;20943;-78
2021/10/20 04:21:52;;;;;;;9.07;3.67;;;12.80;99.90;;;;;;5016189;28;20468;-77
2021/10/20 04:24:19;;;;;;;4.90;2.83;;;12.80;99.90;;;;;;5015254;28;20930;-76
2021/10/20 04:26:46;;;;;;;5.43;3.33;;;12.70;99.90;;;;;;5015498;28;20487;-77
2021/10/20 04:29:12;;;;;;;5.50;3.20;;;12.70;99.90;;;;;;5015875;28;20457;-77
2021/10/20 04:31:41;;;;;;;5.37;3.13;;;12.70;99.90;;;;;;5015347;28;20920;-77
2021/10/20 04:34:08;;;;;;;5.50;3.30;;;12.50;99.90;;;;;;5015171;28;20427;-77
2021/10/20 04:36:35;;;;;;;7.07;3.07;;;12.50;99.90;;;;;;5015682;28;20808;-77
2021/10/20 04:39:01;;;;;;;6.60;3.30;;;12.50;99.90;;;;;;5015736;28;20409;-77
2021/10/20 04:41:28;;;;;;;5.73;3.47;;;12.60;99.90;;;;;;5016029;28;20490;-76
2021/10/20 04:43:55;;;;;;;7.63;3.50;;;12.50;99.90;;;;;;5015263;28;20859;-76
2021/10/20 04:46:22;;;;;;;7.73;4.00;;;12.50;99.90;;;;;;5015640;28;20491;-77
2021/10/20 04:48:51;;;;;;;7.53;3.77;;;12.60;99.90;;;;;;5015449;28;20433;-77
2021/10/20 04:51:18;;;;;;;6.47;3.70;;;12.60;99.90;;;;;;5015165;28;20473;-77
2021/10/20 04:53:44;;;;;;;8.40;3.60;;;12.60;99.90;;;;;;5014911;28;20542;-77
2021/10/20 04:56:11;;;;;;;6.53;3.63;;;12.60;99.90;;;;;;5015197;28;20454;-77
2021/10/20 04:58:38;;;;;;;5.73;3.57;;;12.60;99.90;;;;;;5015045;28;20465;-77
2021/10/20 05:01:05;;;;;;;5.50;3.50;;;12.50;99.90;;;;;;5015203;28;20882;-77
2021/10/20 05:03:32;;;;;;;5.40;3.57;;;12.60;99.90;;;;;;5016385;28;20454;-78
2021/10/20 05:06:00;;;;;;;7.43;3.27;;;12.50;99.90;;;;;;5016010;28;20454;-77
2021/10/20 05:08:27;;;;;;;6.27;4.03;;;12.50;99.90;;;;;;5016586;28;20462;-78
2021/10/20 05:10:56;;;;;;;7.07;3.80;;;12.50;99.90;;;;;;5016601;28;20453;-78
2021/10/20 05:13:23;;;;;;;6.13;3.60;;;12.60;99.90;;;;;;5016553;28;20473;-78
2021/10/20 05:15:50;;;;;;;7.10;3.37;;;12.70;99.90;;;;;;5017591;28;20521;-78
2021/10/20 05:18:16;;;;;;;7.27;3.77;;;12.70;99.90;;;;;;5027146;28;20448;-77
2021/10/20 05:20:43;;;;;;;6.90;3.70;;;12.70;99.90;;;;;;5025774;28;20425;-78
2021/10/20 05:23:11;;;;;;;5.50;3.57;;;12.80;99.90;;;;;;5021909;28;20516;-78
2021/10/20 05:25:38;;;;;;;8.47;4.10;;;12.80;99.90;;;;;;5016595;28;20425;-78
2021/10/20 05:28:06;;;;;;;5.30;3.40;;;12.70;99.90;;;;;;5015884;28;20429;-78
2021/10/20 05:30:33;;;;;;;6.83;3.63;;;12.70;99.90;;;;;;5016044;28;20900;-78
2021/10/20 05:33:00;;;;;;;5.30;3.30;;;12.60;99.90;;;;;;5015533;28;21000;-77
2021/10/20 05:35:27;;;;;;;5.60;3.40;;;12.60;99.90;;;;;;5016329;28;20428;-78
2021/10/20 05:37:54;;;;;;;7.07;3.47;;;12.50;99.90;;;;;;5015897;28;20454;-80
2021/10/20 05:40:24;;;;;;;6.73;3.87;;;12.50;99.90;;;;;;5015920;28;20424;-78
2021/10/20 05:42:51;;;;;;;8.03;3.67;;;12.50;99.90;;;;;;5016465;28;20546;-79
2021/10/20 05:45:19;;;;;;;8.57;3.63;;;12.40;99.90;;;;;;5016288;28;20434;-78
2021/10/20 05:47:45;;;;;;;7.10;3.57;;;12.30;99.90;;;;;;5015654;28;20432;-77
2021/10/20 05:50:12;;;;;;;7.60;4.07;;;12.30;99.90;;;;;;5013955;28;20421;-77
2021/10/20 05:52:39;;;;;;;5.50;3.40;;;12.30;99.90;;;;;;5014722;28;20449;-77
2021/10/20 05:55:07;;;;;;;12.93;4.00;;;12.20;99.90;;;;;;5014228;28;20808;-77
2021/10/20 05:57:37;;;;;;;10.10;3.80;;;12.30;99.90;;;;;;5016999;28;20878;-78
2021/10/20 06:00:07;;;;;;;5.10;3.60;;;12.30;99.90;;;;;;5016603;28;20413;-77
2021/10/20 06:02:33;;;;;;;5.87;3.70;;;12.40;99.90;;;;;;5014949;28;20468;-77
2021/10/20 06:05:00;;;;;;;6.93;3.57;;;12.40;99.90;;;;;;5015377;28;20516;-77
2021/10/20 06:07:27;;;;;;;5.70;3.87;;;12.40;99.90;;;;;;5015555;28;20455;-77
2021/10/20 06:09:54;;;;;;;7.43;4.23;;;12.40;99.90;;;;;;5014449;28;20450;-77
2021/10/20 06:12:22;;;;;;;7.70;3.73;;;12.50;99.90;;;;;;5014144;28;20448;-76
2021/10/20 06:14:50;;;;;;;7.10;4.00;;;12.50;99.90;;;;;;5014285;28;20457;-76
2021/10/20 06:17:18;;;;;;;6.57;3.33;;;12.50;99.90;;;;;;5013959;28;20505;-77
2021/10/20 06:19:45;;;;;;;6.33;3.77;;;12.50;99.90;;;;;;5023536;28;20469;-76
2021/10/20 06:22:12;;;;;;;5.93;3.30;;;12.60;99.90;;;;;;5029747;28;20474;-77
2021/10/20 06:24:39;;;;;;;7.20;4.20;;;12.50;99.90;;;;;;5028393;28;20445;-77
2021/10/20 06:27:06;;;;;;;6.93;3.77;;;12.50;99.90;;;;;;5027714;28;20506;-77
2021/10/20 06:29:33;;;;;;;6.00;3.80;;;12.50;99.90;;;;;;5020123;28;20461;-77
2021/10/20 06:32:01;;;;;;;4.93;3.20;;;12.60;99.90;;;;;;5029410;28;20829;-76
2021/10/20 06:34:28;;;;;;;6.07;3.87;;;12.50;99.90;;;;;;5029228;28;20516;-77
2021/10/20 06:36:54;;;;;;;6.40;3.90;;;12.50;99.90;;;;;;5026011;28;20475;-76
2021/10/20 06:39:23;;;;;;;7.87;3.80;;;12.50;99.90;;;;;;5023791;28;20545;-76
2021/10/20 06:41:51;;;;;;;8.50;4.23;;;12.50;99.90;;;;;;5025992;28;20940;-77
2021/10/20 06:44:18;;;;;;;6.30;3.63;;;12.50;99.90;;;;;;5024836;28;20920;-77
2021/10/20 06:46:45;;;;;;;13.90;4.13;;;12.50;99.90;;;;;;5025325;28;20555;-76
2021/10/20 06:49:13;;;;;;;8.30;4.80;;;12.60;99.90;;;;;;5027304;28;20484;-77
2021/10/20 06:51:40;;;;;;;8.93;4.40;;;12.60;99.90;;;;;;5026740;28;20501;-77
2021/10/20 06:54:07;;;;;;;11.53;4.33;;;12.60;99.90;;;;;;5032445;28;20585;-77
2021/10/20 06:56:34;;;;;;;8.63;4.37;;;12.50;99.90;;;;;;5030558;28;20817;-76
2021/10/20 06:59:01;;;;;;;8.73;4.43;;;12.60;99.90;;;;;;5026251;28;20477;-77
2021/10/20 07:01:28;;;;;;;7.30;4.40;;;12.60;99.90;;;;;;5025220;28;20549;-76
2021/10/20 07:03:55;;;;;;;8.50;4.73;;;12.60;99.90;;;;;;5031222;28;20474;-76
2021/10/20 07:06:27;;;;;;;8.53;4.40;;;12.70;99.90;;;;;;5030494;28;20584;-76
2021/10/20 07:08:55;;;;;;;10.80;4.10;;;12.80;99.90;;;;;;5034242;28;20462;-75
2021/10/20 07:11:22;;;;;;;7.30;4.00;;;13.00;99.90;;;;;;5026473;28;20496;-76
2021/10/20 07:13:48;;;;;;;7.37;4.77;;;13.00;99.90;;;;;;5029393;28;20449;-75
2021/10/20 07:16:15;;;;;;;9.03;5.00;;;13.10;99.90;;;;;;5028349;28;20420;-75
2021/10/20 07:18:42;;;;;;;9.57;5.10;;;13.20;99.90;;;;;;5031748;28;20523;-76
2021/10/20 07:21:09;;;;;;;10.80;4.97;;;13.20;99.90;;;;;;5034502;28;20462;-76
2021/10/20 07:23:37;;;;;;;12.03;5.73;;;13.30;99.90;;;;;;5034781;28;20444;-77
2021/10/20 07:26:04;;;;;;;7.80;4.33;;;13.50;99.90;;;;;;5034981;28;20454;-77
2021/10/20 07:28:31;;;;;;;7.63;4.60;;;13.50;99.90;;;;;;5033129;28;20460;-76
2021/10/20 07:30:58;;;;;;;8.17;4.63;;;13.70;99.90;;;;;;5033723;28;20468;-78
2021/10/20 07:33:25;;;;;;;8.83;5.20;;;13.80;99.90;;;;;;5027737;28;20469;-76
2021/10/20 07:35:51;;;;;;;7.73;4.83;;;13.80;99.90;;;;;;5030025;28;20425;-76
2021/10/20 07:38:18;;;;;;;10.60;5.40;;;13.90;99.90;;;;;;5033575;28;20508;-76
2021/10/20 07:40:47;;;;;;;11.13;6.00;;;14.00;99.90;;;;;;5032413;28;20448;-76
2021/10/20 07:43:13;;;;;;;10.13;5.20;;;14.10;99.90;;;;;;5031442;28;20550;-76
2021/10/20 07:45:41;;;;;;;7.43;5.40;;;14.20;99.90;;;;;;5030944;28;20432;-77
2021/10/20 07:48:08;;;;;;;13.10;6.90;;;14.30;99.90;;;;;;5018592;28;20457;-77
2021/10/20 07:50:35;;;;;;;8.80;5.53;;;14.40;99.90;;;;;;5020640;28;20450;-76
2021/10/20 07:53:01;;;;;;;8.53;4.50;;;14.50;99.90;;;;;;5020247;28;20440;-76
2021/10/20 07:55:28;;;;;;;10.03;5.60;;;14.50;99.90;;;;;;5019325;28;20431;-77
2021/10/20 07:57:57;;;;;;;5.93;4.23;;;14.70;99.90;;;;;;5018469;28;20876;-77
2021/10/20 08:00:24;;;;;;;7.20;4.30;;;14.80;99.90;;;;;;5019022;28;20428;-77
2021/10/20 08:02:51;;;;;;;6.00;4.00;;;14.90;99.90;;;;;;5017433;28;21001;-77
2021/10/20 08:05:19;;;;;;;9.70;3.70;;;15.10;99.90;;;;;;5018517;28;20541;-76
2021/10/20 08:07:46;;;;;;;4.83;3.17;;;15.20;99.90;;;;;;5016812;28;20424;-77
2021/10/20 08:10:14;;;;;;;6.77;4.30;;;15.40;99.90;;;;;;5017560;28;20528;-77
2021/10/20 08:12:41;;;;;;;9.50;3.80;;;15.60;99.90;;;;;;5017380;28;20449;-77
2021/10/20 08:15:12;;;;;;;8.73;3.90;;;15.70;99.90;;;;;;5029739;28;20421;-77
2021/10/20 08:17:39;;;;;;;6.87;3.40;;;15.80;99.90;;;;;;5015859;28;20812;-77
2021/10/20 08:20:09;;;;;;;6.00;3.73;;;16.00;99.90;;;;;;5016663;28;20435;-77
2021/10/20 08:22:36;;;;;;;7.73;3.90;;;16.20;99.90;;;;;;5017194;28;20874;-77
2021/10/20 08:25:03;;;;;;;6.50;3.93;;;16.40;99.90;;;;;;5018289;28;20446;-77
2021/10/20 08:27:30;;;;;;;5.83;3.50;;;16.50;99.90;;;;;;5016258;28;20973;-77
2021/10/20 08:29:57;;;;;;;6.70;3.90;;;16.70;99.90;;;;;;5016422;28;20458;-77
2021/10/20 08:32:25;;;;;;;7.07;3.57;;;16.80;99.90;;;;;;5016036;28;20586;-77
2021/10/20 08:34:52;;;;;;;9.73;3.03;;;17.00;99.90;;;;;;5016800;28;20442;-77
2021/10/20 08:37:20;;;;;;;7.97;3.53;;;17.10;99.90;;;;;;5016326;28;20463;-77
2021/10/20 08:39:47;;;;;;;5.17;2.93;;;17.20;99.90;;;;;;5016144;28;20546;-77
2021/10/20 08:42:14;;;;;;;6.27;3.37;;;17.30;99.90;;;;;;5015974;28;20571;-77
2021/10/20 08:44:41;;;;;;;8.00;3.83;;;17.50;99.90;;;;;;5015820;28;20534;-77
2021/10/20 08:47:08;;;;;;;5.33;3.40;;;17.50;99.90;;;;;;5016315;28;20563;-77
2021/10/20 08:49:38;;;;;;;6.80;3.50;;;17.60;99.90;;;;;;5015304;28;20455;-77
2021/10/20 08:52:06;;;;;;;5.17;3.43;;;17.70;99.90;;;;;;5016150;28;20844;-77
2021/10/20 08:54:33;;;;;;;6.37;3.63;;;17.80;99.90;;;;;;5015622;28;20823;-77
2021/10/20 08:57:00;;;;;;;5.43;3.17;;;17.90;99.90;;;;;;5015543;28;20422;-77
2021/10/20 08:59:27;;;;;;;6.07;3.33;;;17.90;99.90;;;;;;5016017;28;20488;-78
2021/10/20 09:01:54;;;;;;;5.20;2.57;;;17.90;99.90;;;;;;5015798;28;20472;-77
2021/10/20 09:04:22;;;;;;;4.90;3.30;;;17.90;99.90;;;;;;5016175;28;20457;-77
2021/10/20 09:06:50;;;;;;;7.20;3.57;;;17.90;99.90;;;;;;5015641;28;20432;-77
2021/10/20 09:09:18;;;;;;;5.63;3.83;;;18.00;99.90;;;;;;5016357;28;20448;-77
2021/10/20 09:11:45;;;;;;;5.97;3.27;;;18.10;99.90;;;;;;5019261;28;20463;-78
2021/10/20 09:14:15;;;;;;;5.20;3.40;;;18.10;99.90;;;;;;5017656;28;20834;-77
2021/10/20 09:16:43;;;;;;;8.00;3.43;;;18.20;99.90;;;;;;5015741;28;20545;-79
2021/10/20 09:19:15;;;;;;;5.33;2.87;;;18.30;99.90;;;;;;5017677;28;20451;-78
2021/10/20 09:21:52;;;;;;;4.40;2.80;;;18.40;99.90;;;;;;5017903;28;20474;-78
2021/10/20 09:24:19;;;;;;;6.60;3.47;;;18.50;99.90;;;;;;5015866;28;20472;-78
2021/10/20 09:26:46;;;;;;;6.57;3.53;;;18.50;99.90;;;;;;5015373;28;20898;-77
2021/10/20 09:29:20;;;;;;;5.17;3.00;;;18.50;99.90;;;;;;5015873;28;20460;-78
2021/10/20 09:31:48;;;;;;;5.47;3.20;;;18.50;99.90;;;;;;5044304;23;20628;-85
2021/10/20 09:34:15;;;;;;;7.47;3.30;;;18.60;99.90;;;;;;5032193;28;20521;-85
2021/10/20 09:36:42;;;;;;;7.03;3.10;;;18.60;99.90;;;;;;5025890;28;20496;-85
2021/10/20 09:39:12;;;;;;;6.03;2.90;;;18.50;99.90;;;;;;5022295;28;20525;-85
2021/10/20 09:41:39;;;;;;;4.87;3.23;;;18.60;99.90;;;;;;5022593;28;20474;-85
2021/10/20 09:44:09;;;;;;;6.00;3.77;;;18.60;99.90;;;;;;5022316;28;20580;-85
2021/10/20 09:46:38;;;;;;;5.23;3.43;;;18.70;99.90;;;;;;5021507;28;20437;-85
2021/10/20 09:49:16;;;;;;;8.43;3.93;;;18.80;99.90;;;;;;5022399;28;20463;-85
2021/10/20 09:51:43;;;;;;;5.13;3.30;;;18.90;99.90;;;;;;5021469;28;20458;-85
2021/10/20 09:54:26;;;;;;;5.10;3.40;;;19.00;99.90;;;;;;5023536;28;20902;-85
2021/10/20 09:56:54;;;;;;;7.23;3.80;;;19.10;99.90;;;;;;5032791;28;20453;-85
2021/10/20 09:59:21;;;;;;;6.30;3.40;;;19.30;99.90;;;;;;5025621;28;20468;-85
2021/10/20 10:01:49;;;;;;;9.30;3.07;;;19.30;99.90;;;;;;5022142;28;20470;-85
2021/10/20 10:04:15;;;;;;;9.13;3.90;;;19.50;99.90;;;;;;5021789;28;20525;-86
2021/10/20 10:06:43;;;;;;;6.37;3.40;;;19.60;99.90;;;;;;5022942;28;20469;-86
2021/10/20 10:09:10;;;;;;;5.43;3.47;;;19.70;99.80;;;;;;5022314;28;20487;-86
2021/10/20 10:11:43;;;;;;;5.67;3.37;;;19.80;99.50;;;;;;5020489;28;20505;-86
2021/10/20 10:14:13;;;;;;;7.20;3.60;;;19.80;99.50;;;;;;5020183;28;20468;-85
2021/10/20 10:16:43;;;;;;;5.90;3.77;;;19.90;99.20;;;;;;5021830;28;20645;-86
2021/10/20 10:19:12;;;;;;;8.40;4.03;;;20.00;99.20;;;;;;5022756;28;20450;-84
2021/10/20 10:21:42;;;;;;;8.33;3.77;;;20.00;98.80;;;;;;5019250;28;20972;-87
2021/10/20 10:24:11;;;;;;;13.70;4.67;;;20.10;99.00;;;;;;5018295;28;20490;-86
2021/10/20 10:27:00;;;;;;;5.70;3.53;;;20.10;99.10;;;;;;5017527;28;20480;-86
2021/10/20 10:29:29;;;;;;;7.23;3.20;;;20.30;98.90;;;;;;5022227;28;20445;-86
2021/10/20 10:31:59;;;;;;;6.90;3.77;;;20.50;98.80;;;;;;5016247;28;20536;-87
2021/10/20 10:34:29;;;;;;;4.67;3.30;;;20.50;98.50;;;;;;5017099;28;20742;-86
2021/10/20 10:36:59;;;;;;;7.93;3.37;;;20.50;98.50;;;;;;5017948;28;20661;-84
2021/10/20 10:39:26;;;;;;;6.03;3.37;;;20.40;98.40;;;;;;5016996;28;20492;-86
2021/10/20 10:42:00;;;;;;;5.80;3.57;;;20.50;98.60;;;;;;5016108;28;20480;-87
2021/10/20 10:44:28;;;;;;;5.87;3.23;;;20.60;98.80;;;;;;5018456;28;20506;-85
2021/10/20 10:47:25;;;;;;;6.70;3.60;;;20.60;98.50;;;;;;5017264;28;20468;-86
2021/10/20 10:49:54;;;;;;;5.00;3.20;;;20.70;98.40;;;;;;4988554;28;20438;-86
2021/10/20 10:52:28;;;;;;;6.63;4.20;;;20.70;98.10;;;;;;5022984;28;20489;-87
2021/10/20 10:55:17;;;;;;;5.80;3.50;;;20.80;97.90;;;;;;5017908;28;20504;-86
2021/10/20 10:57:57;;;;;;;5.23;3.33;;;20.70;98.00;;;;;;5017940;28;20465;-86
2021/10/20 11:00:46;;;;;;;7.43;2.90;;;20.70;98.10;;;;;;5017384;28;20427;-86
2021/10/20 11:03:22;;;;;;;4.60;2.70;;;20.70;98.10;;;;;;5016308;28;20593;-86
2021/10/20 11:05:57;;;;;;;4.90;3.40;;;20.80;97.80;;;;;;5017096;28;20435;-86
2021/10/20 11:08:24;;;;;;;9.70;4.37;;;20.80;98.00;;;;;;5017107;28;20864;-86
2021/10/20 11:10:52;;;;;;;7.23;3.90;;;20.70;98.20;;;;;;5018115;28;20465;-87
2021/10/20 11:13:21;;;;;;;7.10;4.20;;;20.70;98.40;;;;;;5016882;28;20876;-87
2021/10/20 11:15:48;;;;;;;5.07;3.23;;;20.80;98.40;;;;;;5018727;28;20883;-87
2021/10/20 11:18:16;;;;;;;4.50;3.20;;;20.70;98.30;;;;;;5018957;28;20450;-86
2021/10/20 11:20:46;;;;;;;6.57;3.60;;;20.70;98.60;;;;;;5018679;28;20537;-86
2021/10/20 11:23:16;;;;;;;5.47;3.60;;;20.60;98.70;;;;;;5021002;28;20497;-84
2021/10/20 11:25:44;;;;;;;5.33;3.27;;;20.70;98.90;;;;;;5020953;28;20541;-85
2021/10/20 11:28:11;;;;;;;7.60;3.10;;;20.70;98.80;;;;;;5017603;28;20488;-85
2021/10/20 11:30:41;;;;;;;5.47;3.60;;;20.90;99.00;;;;;;5016374;28;20519;-85
2021/10/20 11:33:11;;;;;;;4.70;2.97;;;20.90;98.60;;;;;;5016438;28;20486;-85
2021/10/20 11:35:38;;;;;;;5.40;3.33;;;21.00;98.40;;;;;;5016687;28;20447;-85
2021/10/20 11:38:07;;;;;;;4.93;3.30;;;21.10;98.30;;;;;;5017670;28;20466;-85
2021/10/20 11:40:37;;;;;;;6.73;2.87;;;21.20;98.40;;;;;;5020520;28;20558;-85
2021/10/20 11:43:13;;;;;;;3.90;2.70;;;21.30;98.20;;;;;;5018047;28;21016;-85
2021/10/20 11:45:41;;;;;;;4.27;2.93;;;21.20;97.90;;;;;;5018794;28;20442;-86
2021/10/20 11:48:08;;;;;;;4.30;2.70;;;21.30;98.00;;;;;;5016986;28;20493;-85
2021/10/20 11:50:35;;;;;;;4.93;2.77;;;21.30;98.20;;;;;;5019022;28;20455;-85
2021/10/20 11:53:05;;;;;;;6.57;3.70;;;21.40;98.10;;;;;;5020844;28;20509;-86
2021/10/20 11:55:32;;;;;;;5.10;2.80;;;21.40;98.00;;;;;;5034916;28;20438;-85
2021/10/20 11:57:59;;;;;;;5.80;3.00;;;21.70;97.50;;;;;;5037320;28;20477;-85
2021/10/20 12:00:26;;;;;;;6.43;3.00;;;21.80;97.40;;;;;;5032414;28;20477;-85
2021/10/20 12:02:59;;;;;;;6.37;3.90;;;21.90;97.20;;;;;;5025676;28;20477;-85
2021/10/20 12:05:26;;;;;;;4.17;2.77;;;22.00;97.00;;;;;;5028834;28;20498;-85
2021/10/20 12:07:54;;;;;;;5.27;2.70;;;22.20;97.00;;;;;;5023810;28;20529;-85
2021/10/20 12:10:21;;;;;;;5.70;3.60;;;22.20;96.70;;;;;;5020073;28;20488;-85
2021/10/20 12:12:49;;;;;;;5.97;3.43;;;22.30;96.70;;;;;;5018582;28;20476;-85
2021/10/20 12:15:18;;;;;;;5.50;3.03;;;22.30;96.70;;;;;;5018787;28;20501;-85
2021/10/20 12:17:46;;;;;;;6.80;3.20;;;22.20;96.80;;;;;;5018386;28;20454;-85
2021/10/20 12:20:17;;;;;;;5.13;2.87;;;22.10;96.80;;;;;;5018754;28;20941;-85
2021/10/20 12:22:47;;;;;;;5.23;3.30;;;22.20;96.90;;;;;;5017842;28;21013;-85
2021/10/20 12:25:13;;;;;;;4.87;3.17;;;22.20;97.10;;;;;;5017433;28;20840;-85
2021/10/20 12:27:42;;;;;;;5.10;3.20;;;22.30;97.00;;;;;;5017978;28;20545;-85
2021/10/20 12:30:11;;;;;;;4.67;2.70;;;22.30;96.90;;;;;;5018229;28;20947;-86
2021/10/20 12:32:39;;;;;;;4.47;2.73;;;22.40;96.70;;;;;;5019371;28;20561;-86
2021/10/20 12:35:10;;;;;;;7.03;3.50;;;22.50;96.70;;;;;;5021932;28;20926;-86
2021/10/20 12:37:39;;;;;;;6.60;3.00;;;22.50;96.70;;;;;;5021997;28;20495;-86
2021/10/20 12:40:09;;;;;;;4.73;2.97;;;22.50;96.80;;;;;;5019723;28;20458;-85
2021/10/20 12:42:42;;;;;;;5.13;3.40;;;22.60;96.90;;;;;;5017662;28;20466;-85
2021/10/20 12:45:10;;;;;;;5.10;3.10;;;22.60;96.80;;;;;;5018357;28;20482;-85
2021/10/20 12:47:42;;;;;;;6.00;3.60;;;22.60;96.60;;;;;;5029760;28;20451;-85
2021/10/20 12:50:10;;;;;;;4.47;2.80;;;22.60;96.70;;;;;;5021834;28;20445;-85